sensor_id;sensor_type;location;lat;lon;timestamp;P1;durP1;ratioP1;P2;durP2;ratioP2
8401;SDS011;4238;48.404;9.498;2023-01-24T00:00:15;20.83;;;12.73;;
8401;SDS011;4238;48.404;9.498;2023-01-24T00:02:44;20.63;;;12.40;;
8401;SDS011;4238;48.404;9.498;2023-01-24T00:05:11;20.43;;;12.83;;
8401;SDS011;4238;48.404;9.498;2023-01-24T00:07:38;19.20;;;11.90;;
8401;SDS011;4238;48.404;9.498;2023-01-24T00:10:06;19.03;;;13.20;;
8401;SDS011;4238;48.404;9.498;2023-01-24T00:12:34;18.83;;;12.17;;
8401;SDS011;4238;48.404;9.498;2023-01-24T00:15:00;23.60;;;11.73;;
8401;SDS011;4238;48.404;9.498;2023-01-24T00:17:27;19.60;;;12.70;;
8401;SDS011;4238;48.404;9.498;2023-01-24T00:19:56;23.33;;;13.93;;
8401;SDS011;4238;48.404;9.498;2023-01-24T00:22:23;22.13;;;13.43;;
8401;SDS011;4238;48.404;9.498;2023-01-24T00:24:50;18.13;;;12.50;;
8401;SDS011;4238;48.404;9.498;2023-01-24T00:27:17;18.67;;;11.83;;
8401;SDS011;4238;48.404;9.498;2023-01-24T00:29:44;18.27;;;12.93;;
8401;SDS011;4238;48.404;9.498;2023-01-24T00:32:10;20.70;;;12.87;;
8401;SDS011;4238;48.404;9.498;2023-01-24T00:34:37;20.57;;;12.50;;
8401;SDS011;4238;48.404;9.498;2023-01-24T00:37:06;20.40;;;13.00;;
8401;SDS011;4238;48.404;9.498;2023-01-24T00:39:32;21.67;;;11.80;;
8401;SDS011;4238;48.404;9.498;2023-01-24T00:41:59;21.43;;;13.00;;
8401;SDS011;4238;48.404;9.498;2023-01-24T00:44:26;24.37;;;12.97;;
8401;SDS011;4238;48.404;9.498;2023-01-24T00:46:53;19.50;;;12.07;;
8401;SDS011;4238;48.404;9.498;2023-01-24T00:49:20;20.43;;;12.67;;
8401;SDS011;4238;48.404;9.498;2023-01-24T00:51:47;20.57;;;13.27;;
8401;SDS011;4238;48.404;9.498;2023-01-24T00:54:15;19.07;;;12.47;;
8401;SDS011;4238;48.404;9.498;2023-01-24T00:56:42;21.03;;;12.00;;
8401;SDS011;4238;48.404;9.498;2023-01-24T00:59:09;18.40;;;12.07;;
8401;SDS011;4238;48.404;9.498;2023-01-24T01:01:36;18.03;;;12.20;;
8401;SDS011;4238;48.404;9.498;2023-01-24T01:04:03;19.10;;;11.63;;
8401;SDS011;4238;48.404;9.498;2023-01-24T01:06:30;18.87;;;10.83;;
8401;SDS011;4238;48.404;9.498;2023-01-24T01:08:57;18.40;;;11.37;;
8401;SDS011;4238;48.404;9.498;2023-01-24T01:11:25;17.40;;;10.80;;
8401;SDS011;4238;48.404;9.498;2023-01-24T01:13:53;22.07;;;12.40;;
8401;SDS011;4238;48.404;9.498;2023-01-24T01:16:21;17.57;;;10.90;;
8401;SDS011;4238;48.404;9.498;2023-01-24T01:18:49;19.13;;;10.27;;
8401;SDS011;4238;48.404;9.498;2023-01-24T01:21:17;15.87;;;10.63;;
8401;SDS011;4238;48.404;9.498;2023-01-24T01:23:45;20.50;;;11.60;;
8401;SDS011;4238;48.404;9.498;2023-01-24T01:26:13;17.33;;;11.67;;
8401;SDS011;4238;48.404;9.498;2023-01-24T01:28:42;19.17;;;11.50;;
8401;SDS011;4238;48.404;9.498;2023-01-24T01:31:10;18.47;;;11.07;;
8401;SDS011;4238;48.404;9.498;2023-01-24T01:33:37;18.87;;;11.40;;
8401;SDS011;4238;48.404;9.498;2023-01-24T01:36:04;17.30;;;12.07;;
8401;SDS011;4238;48.404;9.498;2023-01-24T01:38:32;18.93;;;11.60;;
8401;SDS011;4238;48.404;9.498;2023-01-24T01:40:59;19.20;;;13.10;;
8401;SDS011;4238;48.404;9.498;2023-01-24T01:43:27;21.87;;;11.67;;
8401;SDS011;4238;48.404;9.498;2023-01-24T01:45:57;20.33;;;12.17;;
8401;SDS011;4238;48.404;9.498;2023-01-24T01:48:29;19.33;;;12.47;;
8401;SDS011;4238;48.404;9.498;2023-01-24T01:51:02;17.20;;;11.47;;
8401;SDS011;4238;48.404;9.498;2023-01-24T01:53:34;18.13;;;12.30;;
8401;SDS011;4238;48.404;9.498;2023-01-24T01:56:07;19.80;;;11.97;;
8401;SDS011;4238;48.404;9.498;2023-01-24T01:58:42;22.20;;;13.53;;
8401;SDS011;4238;48.404;9.498;2023-01-24T02:01:10;16.77;;;11.73;;
8401;SDS011;4238;48.404;9.498;2023-01-24T02:03:41;18.23;;;12.43;;
8401;SDS011;4238;48.404;9.498;2023-01-24T02:06:17;17.63;;;12.20;;
8401;SDS011;4238;48.404;9.498;2023-01-24T02:08:52;17.40;;;10.77;;
8401;SDS011;4238;48.404;9.498;2023-01-24T02:11:20;19.80;;;11.50;;
8401;SDS011;4238;48.404;9.498;2023-01-24T02:14:07;17.03;;;11.10;;
8401;SDS011;4238;48.404;9.498;2023-01-24T02:16:55;18.07;;;10.93;;
8401;SDS011;4238;48.404;9.498;2023-01-24T02:19:36;17.83;;;11.03;;
8401;SDS011;4238;48.404;9.498;2023-01-24T02:22:20;18.27;;;11.13;;
8401;SDS011;4238;48.404;9.498;2023-01-24T02:24:57;15.83;;;12.03;;
8401;SDS011;4238;48.404;9.498;2023-01-24T02:27:30;17.83;;;11.63;;
8401;SDS011;4238;48.404;9.498;2023-01-24T02:29:57;17.00;;;10.93;;
8401;SDS011;4238;48.404;9.498;2023-01-24T02:32:25;16.20;;;10.70;;
8401;SDS011;4238;48.404;9.498;2023-01-24T02:34:52;17.57;;;11.33;;
8401;SDS011;4238;48.404;9.498;2023-01-24T02:37:19;17.63;;;10.87;;
8401;SDS011;4238;48.404;9.498;2023-01-24T02:39:47;15.67;;;9.20;;
8401;SDS011;4238;48.404;9.498;2023-01-24T02:42:20;16.87;;;11.47;;
8401;SDS011;4238;48.404;9.498;2023-01-24T02:44:52;16.97;;;9.77;;
8401;SDS011;4238;48.404;9.498;2023-01-24T02:47:25;14.83;;;8.70;;
8401;SDS011;4238;48.404;9.498;2023-01-24T02:49:57;14.57;;;9.50;;
8401;SDS011;4238;48.404;9.498;2023-01-24T02:52:25;12.97;;;9.43;;
8401;SDS011;4238;48.404;9.498;2023-01-24T02:55:10;14.33;;;10.40;;
8401;SDS011;4238;48.404;9.498;2023-01-24T02:57:37;13.50;;;8.87;;
8401;SDS011;4238;48.404;9.498;2023-01-24T03:00:23;14.87;;;10.07;;
8401;SDS011;4238;48.404;9.498;2023-01-24T03:02:50;12.77;;;9.47;;
8401;SDS011;4238;48.404;9.498;2023-01-24T03:05:17;11.57;;;8.80;;
8401;SDS011;4238;48.404;9.498;2023-01-24T03:07:44;13.10;;;9.43;;
8401;SDS011;4238;48.404;9.498;2023-01-24T03:10:11;15.47;;;9.27;;
8401;SDS011;4238;48.404;9.498;2023-01-24T03:12:39;12.00;;;9.03;;
8401;SDS011;4238;48.404;9.498;2023-01-24T03:15:25;13.43;;;9.43;;
8401;SDS011;4238;48.404;9.498;2023-01-24T03:18:10;15.10;;;9.50;;
8401;SDS011;4238;48.404;9.498;2023-01-24T03:20:55;14.93;;;9.17;;
8401;SDS011;4238;48.404;9.498;2023-01-24T03:23:39;15.10;;;9.40;;
8401;SDS011;4238;48.404;9.498;2023-01-24T03:26:24;13.83;;;8.97;;
8401;SDS011;4238;48.404;9.498;2023-01-24T03:29:08;14.63;;;10.53;;
8401;SDS011;4238;48.404;9.498;2023-01-24T03:31:55;14.30;;;10.13;;
8401;SDS011;4238;48.404;9.498;2023-01-24T03:34:39;11.27;;;8.37;;
8401;SDS011;4238;48.404;9.498;2023-01-24T03:37:14;11.77;;;9.10;;
8401;SDS011;4238;48.404;9.498;2023-01-24T03:39:41;12.97;;;9.17;;
8401;SDS011;4238;48.404;9.498;2023-01-24T03:42:23;13.93;;;9.33;;
8401;SDS011;4238;48.404;9.498;2023-01-24T03:44:51;13.63;;;9.03;;
8401;SDS011;4238;48.404;9.498;2023-01-24T03:47:20;11.53;;;8.63;;
8401;SDS011;4238;48.404;9.498;2023-01-24T03:49:47;14.50;;;9.30;;
8401;SDS011;4238;48.404;9.498;2023-01-24T03:52:31;12.27;;;8.67;;
8401;SDS011;4238;48.404;9.498;2023-01-24T03:54:59;13.80;;;9.00;;
8401;SDS011;4238;48.404;9.498;2023-01-24T03:57:27;12.80;;;9.70;;
8401;SDS011;4238;48.404;9.498;2023-01-24T03:59:54;9.40;;;6.97;;
8401;SDS011;4238;48.404;9.498;2023-01-24T04:02:23;13.00;;;9.53;;
8401;SDS011;4238;48.404;9.498;2023-01-24T04:04:50;13.60;;;9.37;;
8401;SDS011;4238;48.404;9.498;2023-01-24T04:07:34;14.97;;;9.57;;
8401;SDS011;4238;48.404;9.498;2023-01-24T04:10:01;14.57;;;9.43;;
8401;SDS011;4238;48.404;9.498;2023-01-24T04:12:29;14.13;;;9.23;;
8401;SDS011;4238;48.404;9.498;2023-01-24T04:14:55;13.47;;;8.97;;
8401;SDS011;4238;48.404;9.498;2023-01-24T04:17:24;12.37;;;9.20;;
8401;SDS011;4238;48.404;9.498;2023-01-24T04:19:51;11.30;;;9.33;;
8401;SDS011;4238;48.404;9.498;2023-01-24T04:22:18;15.13;;;9.70;;
8401;SDS011;4238;48.404;9.498;2023-01-24T04:24:44;15.30;;;9.77;;
8401;SDS011;4238;48.404;9.498;2023-01-24T04:27:11;14.40;;;9.27;;
8401;SDS011;4238;48.404;9.498;2023-01-24T04:29:38;14.33;;;8.87;;
8401;SDS011;4238;48.404;9.498;2023-01-24T04:32:05;12.80;;;8.87;;
8401;SDS011;4238;48.404;9.498;2023-01-24T04:34:34;13.30;;;9.33;;
8401;SDS011;4238;48.404;9.498;2023-01-24T04:37:01;12.50;;;8.67;;
8401;SDS011;4238;48.404;9.498;2023-01-24T04:39:27;13.10;;;8.83;;
8401;SDS011;4238;48.404;9.498;2023-01-24T04:41:54;13.50;;;9.43;;
8401;SDS011;4238;48.404;9.498;2023-01-24T04:44:21;12.47;;;9.37;;
8401;SDS011;4238;48.404;9.498;2023-01-24T04:46:48;11.70;;;9.00;;
8401;SDS011;4238;48.404;9.498;2023-01-24T04:49:15;12.07;;;8.97;;
8401;SDS011;4238;48.404;9.498;2023-01-24T04:51:45;12.90;;;9.33;;
8401;SDS011;4238;48.404;9.498;2023-01-24T04:54:13;14.43;;;9.70;;
8401;SDS011;4238;48.404;9.498;2023-01-24T04:56:40;14.57;;;8.30;;
8401;SDS011;4238;48.404;9.498;2023-01-24T04:59:07;12.17;;;9.80;;
8401;SDS011;4238;48.404;9.498;2023-01-24T05:01:34;13.20;;;8.80;;
8401;SDS011;4238;48.404;9.498;2023-01-24T05:04:01;13.07;;;8.97;;
8401;SDS011;4238;48.404;9.498;2023-01-24T05:06:28;14.57;;;9.67;;
8401;SDS011;4238;48.404;9.498;2023-01-24T05:08:58;14.87;;;9.77;;
8401;SDS011;4238;48.404;9.498;2023-01-24T05:11:25;13.27;;;8.77;;
8401;SDS011;4238;48.404;9.498;2023-01-24T05:13:52;13.50;;;8.60;;
8401;SDS011;4238;48.404;9.498;2023-01-24T05:16:19;13.53;;;9.80;;
8401;SDS011;4238;48.404;9.498;2023-01-24T05:18:46;11.97;;;8.43;;
8401;SDS011;4238;48.404;9.498;2023-01-24T05:21:14;17.47;;;10.67;;
8401;SDS011;4238;48.404;9.498;2023-01-24T05:23:47;16.10;;;11.67;;
8401;SDS011;4238;48.404;9.498;2023-01-24T05:26:15;14.10;;;9.60;;
8401;SDS011;4238;48.404;9.498;2023-01-24T05:28:42;13.73;;;10.10;;
8401;SDS011;4238;48.404;9.498;2023-01-24T05:31:09;10.67;;;8.73;;
8401;SDS011;4238;48.404;9.498;2023-01-24T05:33:36;11.00;;;8.00;;
8401;SDS011;4238;48.404;9.498;2023-01-24T05:36:04;11.73;;;8.80;;
8401;SDS011;4238;48.404;9.498;2023-01-24T05:38:33;12.60;;;9.27;;
8401;SDS011;4238;48.404;9.498;2023-01-24T05:41:00;14.13;;;9.60;;
8401;SDS011;4238;48.404;9.498;2023-01-24T05:43:30;11.97;;;8.50;;
8401;SDS011;4238;48.404;9.498;2023-01-24T05:45:58;14.20;;;10.20;;
8401;SDS011;4238;48.404;9.498;2023-01-24T05:48:25;16.23;;;10.17;;
8401;SDS011;4238;48.404;9.498;2023-01-24T05:50:55;11.53;;;8.37;;
8401;SDS011;4238;48.404;9.498;2023-01-24T05:53:24;8.60;;;7.03;;
8401;SDS011;4238;48.404;9.498;2023-01-24T05:55:54;12.23;;;8.60;;
8401;SDS011;4238;48.404;9.498;2023-01-24T05:58:22;10.70;;;8.20;;
8401;SDS011;4238;48.404;9.498;2023-01-24T06:00:50;12.20;;;8.17;;
8401;SDS011;4238;48.404;9.498;2023-01-24T06:03:18;13.83;;;9.23;;
8401;SDS011;4238;48.404;9.498;2023-01-24T06:05:45;13.67;;;8.47;;
8401;SDS011;4238;48.404;9.498;2023-01-24T06:08:13;12.27;;;8.60;;
8401;SDS011;4238;48.404;9.498;2023-01-24T06:10:40;13.30;;;8.30;;
8401;SDS011;4238;48.404;9.498;2023-01-24T06:13:07;11.80;;;8.70;;
8401;SDS011;4238;48.404;9.498;2023-01-24T06:15:35;12.17;;;8.70;;
8401;SDS011;4238;48.404;9.498;2023-01-24T06:18:04;12.83;;;9.30;;
8401;SDS011;4238;48.404;9.498;2023-01-24T06:20:31;14.30;;;9.07;;
8401;SDS011;4238;48.404;9.498;2023-01-24T06:23:02;14.23;;;9.47;;
8401;SDS011;4238;48.404;9.498;2023-01-24T06:25:31;11.97;;;7.47;;
8401;SDS011;4238;48.404;9.498;2023-01-24T06:27:58;14.03;;;9.17;;
8401;SDS011;4238;48.404;9.498;2023-01-24T06:30:26;18.70;;;9.70;;
8401;SDS011;4238;48.404;9.498;2023-01-24T06:32:57;16.10;;;10.17;;
8401;SDS011;4238;48.404;9.498;2023-01-24T06:35:46;15.27;;;10.43;;
8401;SDS011;4238;48.404;9.498;2023-01-24T06:38:20;14.23;;;11.00;;
8401;SDS011;4238;48.404;9.498;2023-01-24T06:40:48;16.40;;;11.37;;
8401;SDS011;4238;48.404;9.498;2023-01-24T06:43:20;15.17;;;10.60;;
8401;SDS011;4238;48.404;9.498;2023-01-24T06:45:47;20.50;;;14.13;;
8401;SDS011;4238;48.404;9.498;2023-01-24T06:48:16;16.80;;;10.83;;
8401;SDS011;4238;48.404;9.498;2023-01-24T06:50:42;16.57;;;11.03;;
8401;SDS011;4238;48.404;9.498;2023-01-24T06:53:09;14.53;;;10.80;;
8401;SDS011;4238;48.404;9.498;2023-01-24T06:55:37;16.90;;;11.23;;
8401;SDS011;4238;48.404;9.498;2023-01-24T06:58:04;17.43;;;10.50;;
8401;SDS011;4238;48.404;9.498;2023-01-24T07:00:31;15.17;;;9.57;;
8401;SDS011;4238;48.404;9.498;2023-01-24T07:02:59;15.30;;;9.33;;
8401;SDS011;4238;48.404;9.498;2023-01-24T07:05:28;14.23;;;10.47;;
8401;SDS011;4238;48.404;9.498;2023-01-24T07:07:55;18.10;;;10.53;;
8401;SDS011;4238;48.404;9.498;2023-01-24T07:10:22;13.97;;;10.43;;
8401;SDS011;4238;48.404;9.498;2023-01-24T07:12:49;16.60;;;10.37;;
8401;SDS011;4238;48.404;9.498;2023-01-24T07:15:16;20.07;;;11.63;;
8401;SDS011;4238;48.404;9.498;2023-01-24T07:17:43;15.30;;;9.53;;
8401;SDS011;4238;48.404;9.498;2023-01-24T07:20:11;15.17;;;10.03;;
8401;SDS011;4238;48.404;9.498;2023-01-24T07:22:41;15.53;;;10.57;;
8401;SDS011;4238;48.404;9.498;2023-01-24T07:25:11;21.00;;;12.33;;
8401;SDS011;4238;48.404;9.498;2023-01-24T07:27:40;16.77;;;12.33;;
8401;SDS011;4238;48.404;9.498;2023-01-24T07:30:08;23.97;;;14.73;;
8401;SDS011;4238;48.404;9.498;2023-01-24T07:32:36;16.27;;;11.03;;
8401;SDS011;4238;48.404;9.498;2023-01-24T07:35:04;14.30;;;11.10;;
8401;SDS011;4238;48.404;9.498;2023-01-24T07:37:32;15.60;;;10.47;;
8401;SDS011;4238;48.404;9.498;2023-01-24T07:40:00;15.53;;;11.13;;
8401;SDS011;4238;48.404;9.498;2023-01-24T07:42:28;15.40;;;10.73;;
8401;SDS011;4238;48.404;9.498;2023-01-24T07:44:55;15.63;;;11.47;;
8401;SDS011;4238;48.404;9.498;2023-01-24T07:47:23;18.17;;;10.90;;
8401;SDS011;4238;48.404;9.498;2023-01-24T07:49:51;17.17;;;11.20;;
8401;SDS011;4238;48.404;9.498;2023-01-24T07:52:18;13.77;;;9.13;;
8401;SDS011;4238;48.404;9.498;2023-01-24T07:54:45;17.80;;;10.40;;
8401;SDS011;4238;48.404;9.498;2023-01-24T07:57:13;16.33;;;10.93;;
8401;SDS011;4238;48.404;9.498;2023-01-24T07:59:41;15.77;;;10.03;;
8401;SDS011;4238;48.404;9.498;2023-01-24T08:02:09;15.87;;;11.30;;
8401;SDS011;4238;48.404;9.498;2023-01-24T08:04:36;15.50;;;10.77;;
8401;SDS011;4238;48.404;9.498;2023-01-24T08:07:03;16.63;;;11.13;;
8401;SDS011;4238;48.404;9.498;2023-01-24T08:09:42;14.70;;;9.80;;
8401;SDS011;4238;48.404;9.498;2023-01-24T08:12:10;13.10;;;10.07;;
8401;SDS011;4238;48.404;9.498;2023-01-24T08:14:38;13.83;;;11.03;;
8401;SDS011;4238;48.404;9.498;2023-01-24T08:17:05;14.20;;;9.90;;
8401;SDS011;4238;48.404;9.498;2023-01-24T08:19:32;15.03;;;10.20;;
8401;SDS011;4238;48.404;9.498;2023-01-24T08:22:00;15.93;;;10.03;;
8401;SDS011;4238;48.404;9.498;2023-01-24T08:24:27;12.93;;;9.50;;
8401;SDS011;4238;48.404;9.498;2023-01-24T08:26:54;13.13;;;9.73;;
8401;SDS011;4238;48.404;9.498;2023-01-24T08:29:21;15.10;;;9.80;;
8401;SDS011;4238;48.404;9.498;2023-01-24T08:31:49;13.53;;;9.00;;
8401;SDS011;4238;48.404;9.498;2023-01-24T08:34:16;13.50;;;8.90;;
8401;SDS011;4238;48.404;9.498;2023-01-24T08:36:43;15.03;;;8.93;;
8401;SDS011;4238;48.404;9.498;2023-01-24T08:39:10;12.23;;;8.53;;
8401;SDS011;4238;48.404;9.498;2023-01-24T08:41:37;12.17;;;9.07;;
8401;SDS011;4238;48.404;9.498;2023-01-24T08:44:04;12.73;;;9.73;;
8401;SDS011;4238;48.404;9.498;2023-01-24T08:46:32;10.77;;;8.30;;
8401;SDS011;4238;48.404;9.498;2023-01-24T08:49:01;13.10;;;9.63;;
8401;SDS011;4238;48.404;9.498;2023-01-24T08:51:28;15.20;;;9.97;;
8401;SDS011;4238;48.404;9.498;2023-01-24T08:53:55;12.23;;;8.53;;
8401;SDS011;4238;48.404;9.498;2023-01-24T08:56:22;13.70;;;9.57;;
8401;SDS011;4238;48.404;9.498;2023-01-24T08:58:49;12.10;;;8.73;;
8401;SDS011;4238;48.404;9.498;2023-01-24T09:01:16;14.50;;;9.37;;
8401;SDS011;4238;48.404;9.498;2023-01-24T09:03:43;15.13;;;11.00;;
8401;SDS011;4238;48.404;9.498;2023-01-24T09:06:11;14.17;;;10.33;;
8401;SDS011;4238;48.404;9.498;2023-01-24T09:08:39;13.10;;;9.70;;
8401;SDS011;4238;48.404;9.498;2023-01-24T09:11:06;13.07;;;9.87;;
8401;SDS011;4238;48.404;9.498;2023-01-24T09:13:33;13.77;;;10.43;;
8401;SDS011;4238;48.404;9.498;2023-01-24T09:16:00;14.07;;;8.57;;
8401;SDS011;4238;48.404;9.498;2023-01-24T09:18:29;9.03;;;7.97;;
8401;SDS011;4238;48.404;9.498;2023-01-24T09:20:59;13.43;;;9.30;;
8401;SDS011;4238;48.404;9.498;2023-01-24T09:23:28;16.00;;;10.57;;
8401;SDS011;4238;48.404;9.498;2023-01-24T09:25:56;13.27;;;9.43;;
8401;SDS011;4238;48.404;9.498;2023-01-24T09:28:23;12.97;;;9.70;;
8401;SDS011;4238;48.404;9.498;2023-01-24T09:30:50;13.13;;;9.97;;
8401;SDS011;4238;48.404;9.498;2023-01-24T09:33:17;15.63;;;10.03;;
8401;SDS011;4238;48.404;9.498;2023-01-24T09:35:50;13.67;;;10.07;;
8401;SDS011;4238;48.404;9.498;2023-01-24T09:38:18;13.40;;;9.83;;
8401;SDS011;4238;48.404;9.498;2023-01-24T09:40:47;11.80;;;8.90;;
8401;SDS011;4238;48.404;9.498;2023-01-24T09:43:25;13.53;;;9.57;;
8401;SDS011;4238;48.404;9.498;2023-01-24T09:46:11;14.20;;;9.47;;
8401;SDS011;4238;48.404;9.498;2023-01-24T09:48:43;13.30;;;9.17;;
8401;SDS011;4238;48.404;9.498;2023-01-24T09:51:13;12.33;;;9.20;;
8401;SDS011;4238;48.404;9.498;2023-01-24T09:53:45;10.87;;;8.83;;
8401;SDS011;4238;48.404;9.498;2023-01-24T09:56:19;12.07;;;8.77;;
8401;SDS011;4238;48.404;9.498;2023-01-24T09:58:55;11.57;;;8.53;;
8401;SDS011;4238;48.404;9.498;2023-01-24T10:01:35;9.50;;;8.20;;
8401;SDS011;4238;48.404;9.498;2023-01-24T10:04:08;9.67;;;8.03;;
8401;SDS011;4238;48.404;9.498;2023-01-24T10:06:54;13.30;;;8.37;;
8401;SDS011;4238;48.404;9.498;2023-01-24T10:09:51;11.93;;;8.67;;
8401;SDS011;4238;48.404;9.498;2023-01-24T10:12:35;11.93;;;8.77;;
8401;SDS011;4238;48.404;9.498;2023-01-24T10:15:24;13.93;;;9.70;;
8401;SDS011;4238;48.404;9.498;2023-01-24T10:21:09;12.40;;;8.00;;
8401;SDS011;4238;48.404;9.498;2023-01-24T10:23:52;10.53;;;7.70;;
8401;SDS011;4238;48.404;9.498;2023-01-24T10:26:25;11.47;;;8.50;;
8401;SDS011;4238;48.404;9.498;2023-01-24T10:29:06;10.10;;;7.67;;
8401;SDS011;4238;48.404;9.498;2023-01-24T10:31:39;13.00;;;8.63;;
8401;SDS011;4238;48.404;9.498;2023-01-24T10:34:09;10.70;;;8.60;;
8401;SDS011;4238;48.404;9.498;2023-01-24T10:36:42;11.20;;;8.03;;
8401;SDS011;4238;48.404;9.498;2023-01-24T10:39:11;10.67;;;8.60;;
8401;SDS011;4238;48.404;9.498;2023-01-24T10:41:38;11.50;;;8.00;;
8401;SDS011;4238;48.404;9.498;2023-01-24T10:44:08;11.57;;;8.13;;
8401;SDS011;4238;48.404;9.498;2023-01-24T10:49:48;11.43;;;8.53;;
8401;SDS011;4238;48.404;9.498;2023-01-24T10:52:18;9.90;;;7.33;;
8401;SDS011;4238;48.404;9.498;2023-01-24T10:54:47;9.63;;;7.67;;
8401;SDS011;4238;48.404;9.498;2023-01-24T10:57:19;9.67;;;7.13;;
8401;SDS011;4238;48.404;9.498;2023-01-24T10:59:57;9.90;;;7.63;;
8401;SDS011;4238;48.404;9.498;2023-01-24T11:02:29;10.40;;;8.00;;
8401;SDS011;4238;48.404;9.498;2023-01-24T11:04:59;11.60;;;8.57;;
8401;SDS011;4238;48.404;9.498;2023-01-24T11:07:29;10.00;;;8.50;;
8401;SDS011;4238;48.404;9.498;2023-01-24T11:10:00;11.30;;;8.20;;
8401;SDS011;4238;48.404;9.498;2023-01-24T11:12:34;11.00;;;8.77;;
8401;SDS011;4238;48.404;9.498;2023-01-24T11:15:03;10.90;;;8.07;;
8401;SDS011;4238;48.404;9.498;2023-01-24T11:17:39;11.10;;;7.87;;
8401;SDS011;4238;48.404;9.498;2023-01-24T11:20:24;9.17;;;7.30;;
8401;SDS011;4238;48.404;9.498;2023-01-24T11:23:01;8.97;;;7.20;;
8401;SDS011;4238;48.404;9.498;2023-01-24T11:25:36;11.40;;;8.17;;
8401;SDS011;4238;48.404;9.498;2023-01-24T11:28:23;9.80;;;7.63;;
8401;SDS011;4238;48.404;9.498;2023-01-24T11:30:52;12.43;;;9.13;;
8401;SDS011;4238;48.404;9.498;2023-01-24T11:33:26;16.50;;;11.63;;
8401;SDS011;4238;48.404;9.498;2023-01-24T11:36:16;12.90;;;9.90;;
8401;SDS011;4238;48.404;9.498;2023-01-24T11:38:59;12.70;;;8.73;;
8401;SDS011;4238;48.404;9.498;2023-01-24T11:41:31;11.60;;;8.70;;
8401;SDS011;4238;48.404;9.498;2023-01-24T11:47:01;9.50;;;7.63;;
8401;SDS011;4238;48.404;9.498;2023-01-24T11:49:41;11.93;;;8.80;;
8401;SDS011;4238;48.404;9.498;2023-01-24T11:52:24;9.43;;;7.73;;
8401;SDS011;4238;48.404;9.498;2023-01-24T11:55:07;12.67;;;8.60;;
8401;SDS011;4238;48.404;9.498;2023-01-24T11:57:44;13.37;;;9.60;;
8401;SDS011;4238;48.404;9.498;2023-01-24T12:00:24;10.77;;;9.13;;
8401;SDS011;4238;48.404;9.498;2023-01-24T12:03:09;9.80;;;7.83;;
8401;SDS011;4238;48.404;9.498;2023-01-24T12:05:52;10.77;;;8.37;;
8401;SDS011;4238;48.404;9.498;2023-01-24T12:08:30;12.27;;;8.90;;
8401;SDS011;4238;48.404;9.498;2023-01-24T12:11:12;9.77;;;8.33;;
8401;SDS011;4238;48.404;9.498;2023-01-24T12:13:48;12.77;;;8.80;;
8401;SDS011;4238;48.404;9.498;2023-01-24T12:16:26;11.37;;;9.27;;
8401;SDS011;4238;48.404;9.498;2023-01-24T12:19:15;12.07;;;8.73;;
8401;SDS011;4238;48.404;9.498;2023-01-24T12:21:59;12.97;;;9.33;;
8401;SDS011;4238;48.404;9.498;2023-01-24T12:24:26;13.37;;;9.40;;
8401;SDS011;4238;48.404;9.498;2023-01-24T12:26:58;10.17;;;7.47;;
8401;SDS011;4238;48.404;9.498;2023-01-24T12:29:28;10.03;;;8.33;;
8401;SDS011;4238;48.404;9.498;2023-01-24T12:32:00;10.80;;;8.83;;
8401;SDS011;4238;48.404;9.498;2023-01-24T12:34:34;12.57;;;8.60;;
8401;SDS011;4238;48.404;9.498;2023-01-24T12:37:10;11.33;;;8.03;;
8401;SDS011;4238;48.404;9.498;2023-01-24T12:39:46;11.33;;;8.70;;
8401;SDS011;4238;48.404;9.498;2023-01-24T12:42:19;12.07;;;9.47;;
8401;SDS011;4238;48.404;9.498;2023-01-24T12:44:52;10.00;;;8.93;;
8401;SDS011;4238;48.404;9.498;2023-01-24T12:47:31;10.57;;;8.47;;
8401;SDS011;4238;48.404;9.498;2023-01-24T12:50:11;10.37;;;8.27;;
8401;SDS011;4238;48.404;9.498;2023-01-24T12:52:46;9.50;;;8.00;;
8401;SDS011;4238;48.404;9.498;2023-01-24T12:55:19;11.07;;;8.40;;
8401;SDS011;4238;48.404;9.498;2023-01-24T12:57:50;9.83;;;8.20;;
8401;SDS011;4238;48.404;9.498;2023-01-24T13:00:22;9.93;;;8.10;;
8401;SDS011;4238;48.404;9.498;2023-01-24T13:06:02;10.23;;;8.97;;
8401;SDS011;4238;48.404;9.498;2023-01-24T13:08:38;11.97;;;8.13;;
8401;SDS011;4238;48.404;9.498;2023-01-24T13:11:17;10.37;;;9.33;;
8401;SDS011;4238;48.404;9.498;2023-01-24T13:13:47;18.27;;;13.23;;
8401;SDS011;4238;48.404;9.498;2023-01-24T13:16:30;10.27;;;8.73;;
8401;SDS011;4238;48.404;9.498;2023-01-24T13:19:19;11.27;;;9.80;;
8401;SDS011;4238;48.404;9.498;2023-01-24T13:21:58;11.80;;;8.97;;
8401;SDS011;4238;48.404;9.498;2023-01-24T13:24:40;12.17;;;8.53;;
8401;SDS011;4238;48.404;9.498;2023-01-24T13:30:15;12.50;;;9.53;;
8401;SDS011;4238;48.404;9.498;2023-01-24T13:32:48;14.93;;;10.47;;
8401;SDS011;4238;48.404;9.498;2023-01-24T13:35:19;12.23;;;9.30;;
8401;SDS011;4238;48.404;9.498;2023-01-24T13:37:52;14.43;;;9.50;;
8401;SDS011;4238;48.404;9.498;2023-01-24T13:40:22;13.73;;;10.23;;
8401;SDS011;4238;48.404;9.498;2023-01-24T13:42:52;13.33;;;9.53;;
8401;SDS011;4238;48.404;9.498;2023-01-24T13:51:22;14.60;;;10.70;;
8401;SDS011;4238;48.404;9.498;2023-01-24T13:54:06;15.70;;;11.53;;
8401;SDS011;4238;48.404;9.498;2023-01-24T13:59:56;14.77;;;10.70;;
8401;SDS011;4238;48.404;9.498;2023-01-24T14:02:39;15.73;;;10.80;;
8401;SDS011;4238;48.404;9.498;2023-01-24T14:08:16;14.73;;;9.90;;
8401;SDS011;4238;48.404;9.498;2023-01-24T14:11:13;16.33;;;10.83;;
8401;SDS011;4238;48.404;9.498;2023-01-24T14:13:54;10.50;;;7.80;;
8401;SDS011;4238;48.404;9.498;2023-01-24T14:19:24;16.40;;;9.83;;
8401;SDS011;4238;48.404;9.498;2023-01-24T14:21:55;14.87;;;11.10;;
8401;SDS011;4238;48.404;9.498;2023-01-24T14:24:26;13.10;;;9.47;;
8401;SDS011;4238;48.404;9.498;2023-01-24T14:26:57;12.17;;;8.87;;
8401;SDS011;4238;48.404;9.498;2023-01-24T14:29:27;13.67;;;8.90;;
8401;SDS011;4238;48.404;9.498;2023-01-24T14:32:02;15.40;;;10.03;;
8401;SDS011;4238;48.404;9.498;2023-01-24T14:34:33;13.77;;;9.70;;
8401;SDS011;4238;48.404;9.498;2023-01-24T14:37:08;13.63;;;10.67;;
8401;SDS011;4238;48.404;9.498;2023-01-24T14:39:35;13.47;;;9.10;;
8401;SDS011;4238;48.404;9.498;2023-01-24T14:42:04;20.87;;;14.57;;
8401;SDS011;4238;48.404;9.498;2023-01-24T14:44:38;14.30;;;10.60;;
8401;SDS011;4238;48.404;9.498;2023-01-24T14:47:16;17.73;;;11.40;;
8401;SDS011;4238;48.404;9.498;2023-01-24T14:49:45;12.40;;;8.33;;
8401;SDS011;4238;48.404;9.498;2023-01-24T14:52:16;13.47;;;9.50;;
8401;SDS011;4238;48.404;9.498;2023-01-24T14:54:45;14.97;;;11.23;;
8401;SDS011;4238;48.404;9.498;2023-01-24T14:57:22;15.17;;;10.00;;
8401;SDS011;4238;48.404;9.498;2023-01-24T14:59:59;13.03;;;9.37;;
8401;SDS011;4238;48.404;9.498;2023-01-24T15:02:28;15.70;;;10.63;;
8401;SDS011;4238;48.404;9.498;2023-01-24T15:04:55;13.53;;;9.73;;
8401;SDS011;4238;48.404;9.498;2023-01-24T15:07:22;11.43;;;9.70;;
8401;SDS011;4238;48.404;9.498;2023-01-24T15:09:49;11.30;;;8.03;;
8401;SDS011;4238;48.404;9.498;2023-01-24T15:12:25;11.23;;;8.27;;
8401;SDS011;4238;48.404;9.498;2023-01-24T15:14:55;12.43;;;9.57;;
8401;SDS011;4238;48.404;9.498;2023-01-24T15:17:24;12.37;;;9.73;;
8401;SDS011;4238;48.404;9.498;2023-01-24T15:19:54;12.13;;;8.93;;
8401;SDS011;4238;48.404;9.498;2023-01-24T15:22:23;11.90;;;8.73;;
8401;SDS011;4238;48.404;9.498;2023-01-24T15:24:52;13.60;;;9.73;;
8401;SDS011;4238;48.404;9.498;2023-01-24T15:27:22;11.73;;;8.90;;
8401;SDS011;4238;48.404;9.498;2023-01-24T15:32:47;11.43;;;8.90;;
8401;SDS011;4238;48.404;9.498;2023-01-24T15:35:28;12.43;;;10.13;;
8401;SDS011;4238;48.404;9.498;2023-01-24T15:40:55;10.97;;;9.17;;
8401;SDS011;4238;48.404;9.498;2023-01-24T15:43:30;11.73;;;8.93;;
8401;SDS011;4238;48.404;9.498;2023-01-24T15:46:18;12.03;;;9.60;;
8401;SDS011;4238;48.404;9.498;2023-01-24T15:49:15;11.73;;;9.20;;
8401;SDS011;4238;48.404;9.498;2023-01-24T15:52:00;10.57;;;7.67;;
8401;SDS011;4238;48.404;9.498;2023-01-24T15:54:39;12.70;;;9.03;;
8401;SDS011;4238;48.404;9.498;2023-01-24T15:57:11;11.30;;;8.73;;
8401;SDS011;4238;48.404;9.498;2023-01-24T15:59:46;11.70;;;7.97;;